createdAt,value
2022-11-28T00:04:19.756Z,4.67
2022-11-28T00:09:23.526Z,6.17
2022-11-28T00:14:27.029Z,4.97
2022-11-28T00:19:32.027Z,4.20
2022-11-28T00:24:35.680Z,4.10
2022-11-28T00:29:40.487Z,4.20
2022-11-28T00:34:45.452Z,4.60
2022-11-28T00:39:49.128Z,3.77
2022-11-28T00:44:52.684Z,4.73
2022-11-28T00:49:57.669Z,4.50
2022-11-28T00:55:01.214Z,3.40
2022-11-28T01:00:06.135Z,3.37
2022-11-28T01:05:11.564Z,6.73
2022-11-28T01:10:15.325Z,3.77
2022-11-28T01:15:19.020Z,4.47
2022-11-28T01:20:24.087Z,4.73
2022-11-28T01:25:28.135Z,4.30
2022-11-28T01:30:31.838Z,3.93
2022-11-28T01:35:36.907Z,4.77
2022-11-28T01:40:47.146Z,4.57
2022-11-28T01:45:51.220Z,4.73
2022-11-28T01:51:00.027Z,5.20
2022-11-28T01:56:07.934Z,4.47
2022-11-28T02:01:12.537Z,3.77
2022-11-28T02:06:20.679Z,4.33
2022-11-28T02:11:40.793Z,3.93
2022-11-28T02:16:59.536Z,4.27
2022-11-28T02:22:12.371Z,3.90
2022-11-28T02:27:40.616Z,4.00
2022-11-28T02:33:06.815Z,4.43
2022-11-28T02:38:20.614Z,4.00
2022-11-28T02:43:32.838Z,4.87
2022-11-28T02:48:45.462Z,4.73
2022-11-28T02:53:52.467Z,4.90
2022-11-28T02:58:56.343Z,5.60
2022-11-28T03:04:17.812Z,4.57
2022-11-28T03:09:37.139Z,5.97
2022-11-28T03:14:51.156Z,5.10
2022-11-28T03:20:04.397Z,4.07
2022-11-28T03:25:14.728Z,4.80
2022-11-28T03:30:23.344Z,6.17
2022-11-28T03:35:33.209Z,5.00
2022-11-28T03:40:44.315Z,4.23
2022-11-28T03:45:52.698Z,5.17
2022-11-28T03:51:07.121Z,4.13
2022-11-28T03:56:16.328Z,4.63
2022-11-28T04:01:30.427Z,4.10
2022-11-28T04:06:45.804Z,4.13
2022-11-28T04:11:55.576Z,4.13
2022-11-28T04:17:11.972Z,3.87
2022-11-28T04:22:21.319Z,4.30
2022-11-28T04:27:29.256Z,4.67
2022-11-28T04:32:37.833Z,3.67
2022-11-28T04:37:48.895Z,4.93
2022-11-28T04:42:57.818Z,3.50
2022-11-28T04:48:02.189Z,4.10
2022-11-28T04:53:14.087Z,4.73
2022-11-28T04:58:22.214Z,3.90
2022-11-28T05:03:29.720Z,3.30
2022-11-28T05:08:35.057Z,4.70
2022-11-28T05:13:38.513Z,4.10
2022-11-28T05:18:44.346Z,4.27
2022-11-28T05:23:51.643Z,3.97
2022-11-28T05:29:05.501Z,4.70
2022-11-28T05:34:09.324Z,5.43
2022-11-28T05:39:14.428Z,3.93
2022-11-28T05:44:21.584Z,3.90
2022-11-28T05:49:29.844Z,5.37
2022-11-28T05:54:35.143Z,3.67
2022-11-28T05:59:38.945Z,3.97
2022-11-28T06:10:40.028Z,4.73
2022-11-28T06:21:28.504Z,4.37
2022-11-28T06:26:33.602Z,5.70
2022-11-28T06:31:37.561Z,5.20
2022-11-28T06:36:41.759Z,4.53
2022-11-28T06:41:46.818Z,5.00
2022-11-28T06:46:50.344Z,5.50
2022-11-28T06:51:53.828Z,15.63
2022-11-28T06:56:58.957Z,5.60
2022-11-28T07:02:07.485Z,5.03
2022-11-28T07:07:16.136Z,4.50
2022-11-28T07:12:21.705Z,5.20
2022-11-28T07:17:25.255Z,4.93
2022-11-28T07:22:28.827Z,4.20
2022-11-28T07:27:33.881Z,4.20
2022-11-28T07:32:40.582Z,3.93
2022-11-28T07:37:44.217Z,5.10
2022-11-28T07:42:49.406Z,4.20
2022-11-28T07:47:52.926Z,5.87
2022-11-28T07:52:57.205Z,5.27
2022-11-28T07:58:02.252Z,7.43
2022-11-28T08:03:05.798Z,7.67
2022-11-28T08:08:09.429Z,6.57
2022-11-28T08:13:15.386Z,10.90
2022-11-28T08:18:18.933Z,7.40
2022-11-28T08:23:22.481Z,6.57
2022-11-28T08:28:27.579Z,10.13
2022-11-28T08:33:31.157Z,5.07
2022-11-28T08:38:34.687Z,11.67
2022-11-28T08:43:40.329Z,6.27
2022-11-28T08:48:44.562Z,7.73
2022-11-28T08:53:49.417Z,8.37
2022-11-28T08:58:54.641Z,6.87
2022-11-28T09:03:58.411Z,7.73
2022-11-28T09:09:05.033Z,5.13
2022-11-28T09:14:10.597Z,10.63
2022-11-28T09:19:14.257Z,6.53
2022-11-28T09:24:17.929Z,9.53
2022-11-28T09:29:23.081Z,7.40
2022-11-28T09:34:27.607Z,5.83
2022-11-28T09:39:43.873Z,4.90
2022-11-28T09:44:59.803Z,7.23
2022-11-28T09:50:11.112Z,8.00
2022-11-28T09:55:20.556Z,8.27
2022-11-28T10:00:33.754Z,5.13
2022-11-28T10:05:41.458Z,10.40
2022-11-28T10:11:04.196Z,6.17
2022-11-28T10:16:20.509Z,7.60
2022-11-28T10:21:30.180Z,6.07
2022-11-28T10:26:39.404Z,7.00
2022-11-28T10:31:47.161Z,7.10
2022-11-28T10:36:59.022Z,7.10
2022-11-28T10:42:16.715Z,12.50
2022-11-28T10:48:29.897Z,5.80
2022-11-28T10:53:38.454Z,6.63
2022-11-28T10:58:48.628Z,7.93
2022-11-28T11:03:54.234Z,6.87
2022-11-28T11:09:02.886Z,6.50
2022-11-28T11:14:11.149Z,9.50
2022-11-28T11:19:25.691Z,8.17
2022-11-28T11:24:29.804Z,8.30
2022-11-28T11:29:40.732Z,9.23
2022-11-28T11:34:47.946Z,7.70
2022-11-28T11:39:55.928Z,11.73
2022-11-28T11:45:29.971Z,9.60
2022-11-28T11:56:04.335Z,7.87
2022-11-28T12:01:22.595Z,9.83
2022-11-28T12:06:41.376Z,12.27
2022-11-28T12:11:57.990Z,8.73
2022-11-28T12:17:46.802Z,7.03
2022-11-28T12:23:17.615Z,6.03
2022-11-28T12:28:51.466Z,11.20
2022-11-28T12:34:13.330Z,13.70
2022-11-28T14:30:00.549Z,11.80
2022-11-28T14:44:37.478Z,10.23
2022-11-28T15:09:26.166Z,9.93
2022-11-28T15:14:20.746Z,7.70
2022-11-28T15:19:44.563Z,17.03
2022-11-28T15:51:48.855Z,9.03
2022-11-28T15:57:30.372Z,8.73
2022-11-28T16:02:45.652Z,11.53
2022-11-28T16:07:55.091Z,6.87
2022-11-28T16:13:15.794Z,8.60
2022-11-28T16:18:36.169Z,7.73
2022-11-28T16:23:52.474Z,8.73
2022-11-28T16:29:16.780Z,9.67
2022-11-28T16:34:49.563Z,6.57
2022-11-28T16:40:19.414Z,8.53
2022-11-28T16:45:29.098Z,8.70
2022-11-28T16:50:39.422Z,7.47
2022-11-28T16:55:48.750Z,10.03
2022-11-28T17:01:05.350Z,9.70
2022-11-28T17:06:23.542Z,14.40
2022-11-28T17:11:35.108Z,11.97
2022-11-28T17:16:43.817Z,11.67
2022-11-28T17:21:51.840Z,8.17
2022-11-28T17:26:58.485Z,10.13
2022-11-28T17:32:08.233Z,10.50
2022-11-28T17:37:31.804Z,7.67
2022-11-28T17:42:39.503Z,9.67
2022-11-28T17:47:52.522Z,12.07
2022-11-28T17:53:00.457Z,13.70
2022-11-28T17:58:06.031Z,10.60
2022-11-28T18:03:15.930Z,9.37
2022-11-28T18:08:25.629Z,9.03
2022-11-28T18:13:48.168Z,9.40
2022-11-28T18:19:38.986Z,9.23
2022-11-28T18:25:23.700Z,8.13
2022-11-28T18:30:44.690Z,9.60
2022-11-28T18:35:59.324Z,13.50
2022-11-28T18:41:12.861Z,8.83
2022-11-28T18:46:26.213Z,8.87
2022-11-28T18:51:41.364Z,10.30
2022-11-28T18:56:58.471Z,9.10
2022-11-28T19:02:10.550Z,9.87
2022-11-28T19:07:19.868Z,9.93
2022-11-28T19:12:26.863Z,9.57
2022-11-28T19:17:45.116Z,12.77
2022-11-28T19:22:58.331Z,8.40
2022-11-28T19:28:06.566Z,11.97
2022-11-28T19:33:15.722Z,8.40
2022-11-28T19:38:25.140Z,9.67
2022-11-28T19:43:33.353Z,10.90
2022-11-28T19:48:39.758Z,10.10
2022-11-28T19:53:47.075Z,12.00
2022-11-28T19:58:52.886Z,11.80
2022-11-28T20:03:58.460Z,11.37
2022-11-28T20:09:08.434Z,11.43
2022-11-28T20:14:14.972Z,12.70
2022-11-28T20:19:19.516Z,12.47
2022-11-28T20:24:26.371Z,13.70
2022-11-28T20:29:31.971Z,12.67
2022-11-28T20:34:37.753Z,15.60
2022-11-28T20:39:44.345Z,12.97
2022-11-28T20:44:52.416Z,12.60
2022-11-28T20:49:57.668Z,16.07
2022-11-28T20:55:05.161Z,13.13
2022-11-28T21:00:11.988Z,13.93
2022-11-28T21:05:17.053Z,13.03
2022-11-28T21:10:22.740Z,13.23
2022-11-28T21:15:28.559Z,15.27
2022-11-28T21:20:34.546Z,13.17
2022-11-28T21:25:42.062Z,11.23
2022-11-28T21:30:48.135Z,10.43
2022-11-28T21:35:52.429Z,14.53
2022-11-28T21:40:57.551Z,13.70
2022-11-28T21:46:04.058Z,14.37
2022-11-28T21:51:09.998Z,13.00
2022-11-28T21:56:15.309Z,14.73
2022-11-28T22:01:20.489Z,15.87
2022-11-28T22:06:28.940Z,13.80
2022-11-28T22:11:33.910Z,14.87
2022-11-28T22:16:37.761Z,15.77
2022-11-28T22:21:56.631Z,14.93
2022-11-28T22:27:01.986Z,14.00
2022-11-28T22:32:06.183Z,12.40
2022-11-28T22:37:10.171Z,12.07
2022-11-28T22:42:15.231Z,12.77
2022-11-28T22:47:18.767Z,13.40
2022-11-28T22:52:22.412Z,14.47
2022-11-28T22:57:27.387Z,11.67
2022-11-28T23:02:34.222Z,12.00
2022-11-28T23:07:38.156Z,11.20
2022-11-28T23:12:43.405Z,13.07
2022-11-28T23:17:47.068Z,12.63
2022-11-28T23:22:53.092Z,15.70
2022-11-28T23:27:58.110Z,13.63
2022-11-28T23:33:40.269Z,12.60
2022-11-28T23:38:44.355Z,12.33
2022-11-28T23:43:50.139Z,12.00
2022-11-28T23:48:54.082Z,12.70
2022-11-28T23:53:57.675Z,11.57
2022-11-28T23:59:05.574Z,10.80
